createdAt,value
2023-04-09T00:02:48.441Z,-11087.72
2023-04-09T00:05:56.370Z,-11089.28
2023-04-09T00:09:02.766Z,-11086.03
2023-04-09T00:12:08.981Z,-11087.72
2023-04-09T00:15:24.357Z,-11089.84
2023-04-09T00:18:36.835Z,-11089.97
2023-04-09T00:21:44.652Z,-11092.94
2023-04-09T00:24:51.321Z,-11094.75
2023-04-09T00:27:58.309Z,-11093.06
2023-04-09T00:31:04.668Z,-11088.56
2023-04-09T00:34:11.082Z,-11086.19
2023-04-09T00:37:18.952Z,-11082.94
2023-04-09T00:40:25.543Z,-11089.56
2023-04-09T00:43:32.157Z,-11092.78
2023-04-09T00:46:38.294Z,-11088.84
2023-04-09T00:49:44.682Z,-11094.75
2023-04-09T00:52:52.712Z,-11096.72
2023-04-09T00:55:59.882Z,-11091.38
2023-04-09T00:59:06.410Z,-11084.34
2023-04-09T01:02:12.858Z,-11084.63
2023-04-09T01:05:19.071Z,-11084.06
2023-04-09T01:08:35.221Z,-11081.84
2023-04-09T01:11:47.905Z,-11083.66
2023-04-09T01:15:01.614Z,-11077.91
2023-04-09T01:18:11.552Z,-11083.22
2023-04-09T01:21:21.645Z,-11085.75
2023-04-09T01:24:42.856Z,-11089.69
2023-04-09T01:28:09.514Z,-11089.13
2023-04-09T01:31:19.737Z,-11082.94
2023-04-09T01:34:27.650Z,-11086.59
2023-04-09T01:37:34.426Z,-11086.19
2023-04-09T01:40:41.042Z,-11093.22
2023-04-09T01:43:50.763Z,-11090.69
2023-04-09T01:46:59.477Z,-11089.13
2023-04-09T01:50:06.171Z,-11090.41
2023-04-09T01:53:12.703Z,-11095.31
2023-04-09T01:56:18.972Z,-11097.28
2023-04-09T01:59:26.729Z,-11099.94
2023-04-09T02:02:40.679Z,-11098.41
2023-04-09T02:05:58.709Z,-11097.28
2023-04-09T02:09:07.820Z,-11102.62
2023-04-09T02:12:17.888Z,-11096.16
2023-04-09T02:15:26.245Z,-11093.34
2023-04-09T02:18:32.903Z,-11094.19
2023-04-09T02:21:39.155Z,-11087.59
2023-04-09T02:24:45.462Z,-11090.69
2023-04-09T02:27:51.942Z,-11086.47
2023-04-09T02:30:59.711Z,-11088.28
2023-04-09T02:34:06.013Z,-11084.34
2023-04-09T02:37:12.116Z,-11082.81
2023-04-09T02:40:18.475Z,-11084.06
2023-04-09T02:43:25.249Z,-11087.88
2023-04-09T02:46:32.776Z,-11082.69
2023-04-09T02:49:39.138Z,-11081.69
2023-04-09T02:52:47.974Z,-11080.16
2023-04-09T02:55:53.946Z,-11082.81
2023-04-09T02:59:00.370Z,-11086.31
2023-04-09T03:02:08.094Z,-11084.34
2023-04-09T03:05:14.531Z,-11084.34
2023-04-09T03:08:21.114Z,-11083.22
2023-04-09T03:11:27.315Z,-11081.00
2023-04-09T03:14:34.806Z,-11064.84
2023-04-09T03:17:42.850Z,-11066.53
2023-04-09T03:20:49.283Z,-11077.91
2023-04-09T03:23:55.110Z,-11079.44
2023-04-09T03:27:00.920Z,-11079.88
2023-04-09T03:30:07.771Z,-11073.69
2023-04-09T03:33:15.447Z,-11080.16
2023-04-09T03:36:21.706Z,-11075.09
2023-04-09T03:39:30.956Z,-11057.13
2023-04-09T03:42:37.583Z,-11055.31
2023-04-09T03:45:43.871Z,-11049.84
2023-04-09T03:48:51.930Z,-11050.97
2023-04-09T03:51:58.088Z,-11063.31
2023-04-09T03:55:05.342Z,-11067.78
2023-04-09T03:58:11.715Z,-11065.56
2023-04-09T04:01:18.100Z,-11054.88
2023-04-09T04:04:25.772Z,-11057.56
2023-04-09T04:07:33.816Z,-11068.06
2023-04-09T04:10:40.339Z,-11061.91
2023-04-09T04:13:46.570Z,-11068.06
2023-04-09T04:16:53.035Z,-11067.78
2023-04-09T04:20:00.827Z,-11068.63
2023-04-09T04:23:07.321Z,-11073.97
2023-04-09T04:26:13.705Z,-11066.53
2023-04-09T04:29:20.263Z,-11066.38
2023-04-09T04:32:26.715Z,-11070.03
2023-04-09T04:35:34.597Z,-11066.13
2023-04-09T04:38:42.717Z,-11065.00
2023-04-09T04:41:48.874Z,-11069.47
2023-04-09T04:44:55.107Z,-11076.22
2023-04-09T04:48:01.206Z,-11075.94
2023-04-09T04:51:08.676Z,-11080.00
2023-04-09T04:54:14.775Z,-11084.34
2023-04-09T04:57:20.777Z,-11091.66
2023-04-09T05:00:26.991Z,-11093.78
2023-04-09T05:03:33.258Z,-11090.81
2023-04-09T05:06:40.916Z,-11108.22
2023-04-09T05:09:47.315Z,-11120.31
2023-04-09T05:12:54.026Z,-11117.66
2023-04-09T05:16:00.234Z,-11098.81
2023-04-09T05:19:06.705Z,-11077.47
2023-04-09T05:22:14.492Z,-11094.19
2023-04-09T05:25:20.944Z,-11099.53
2023-04-09T05:28:28.077Z,-11103.88
2023-04-09T05:31:34.452Z,-11101.63
2023-04-09T05:34:41.151Z,-11096.00
2023-04-09T05:37:49.275Z,-11119.31
2023-04-09T05:40:55.761Z,-11134.22
2023-04-09T05:44:01.973Z,-11131.41
2023-04-09T05:47:08.340Z,-11131.97
2023-04-09T05:50:14.606Z,-11151.78
2023-04-09T05:53:23.053Z,-11156.84
2023-04-09T05:56:29.318Z,-11149.09
2023-04-09T05:59:35.630Z,-11142.50
2023-04-09T06:02:42.671Z,-11157.69
2023-04-09T06:05:49.542Z,-11150.38
2023-04-09T06:08:57.071Z,-11148.41
2023-04-09T06:12:04.188Z,-11171.19
2023-04-09T06:15:11.365Z,-11169.50
2023-04-09T06:18:18.523Z,-11170.06
2023-04-09T06:21:24.797Z,-11175.53
2023-04-09T06:24:34.358Z,-11161.34
2023-04-09T06:27:41.349Z,-11154.31
2023-04-09T06:30:49.313Z,-11147.28
2023-04-09T06:33:55.910Z,-11168.94
2023-04-09T06:37:02.696Z,-11168.09
2023-04-09T06:40:11.359Z,-11165.84
2023-04-09T06:43:17.900Z,-11172.59
2023-04-09T06:46:24.553Z,-11170.06
2023-04-09T06:49:31.030Z,-11180.03
2023-04-09T06:52:37.353Z,-11183.97
2023-04-09T06:55:45.085Z,-11179.19
2023-04-09T06:58:51.715Z,-11199.56
2023-04-09T07:01:58.189Z,-11194.38
2023-04-09T07:05:04.587Z,-11187.19
2023-04-09T07:08:11.861Z,-11204.50
2023-04-09T07:11:19.871Z,-11214.75
2023-04-09T07:14:26.278Z,-11219.41
2023-04-09T07:17:33.489Z,-11226.84
2023-04-09T07:20:39.732Z,-11226.28
2023-04-09T07:23:46.024Z,-11218.84
2023-04-09T07:26:54.011Z,-11217.00
2023-04-09T07:30:01.117Z,-11231.91
2023-04-09T07:33:07.707Z,-11238.09
2023-04-09T07:36:14.214Z,-11254.44
2023-04-09T07:39:21.201Z,-11237.56
2023-04-09T07:42:28.848Z,-11263.03
2023-04-09T07:45:35.416Z,-11261.19
2023-04-09T07:48:41.843Z,-11284.00
2023-04-09T07:51:48.062Z,-11271.19
2023-04-09T07:54:54.543Z,-11268.38
2023-04-09T07:58:02.297Z,-11241.47
2023-04-09T08:01:08.545Z,-11251.47
2023-04-09T08:04:15.392Z,-11253.59
2023-04-09T08:07:22.147Z,-11253.31
2023-04-09T08:10:28.595Z,-11273.28
2023-04-09T08:13:36.563Z,-11270.34
2023-04-09T08:16:47.398Z,-11251.06
2023-04-09T08:19:53.914Z,-11257.66
2023-04-09T08:23:00.500Z,-11285.13
2023-04-09T08:26:07.098Z,-11278.06
2023-04-09T08:29:15.878Z,-11276.09
2023-04-09T08:32:22.180Z,-11280.75
2023-04-09T08:35:29.435Z,-11272.31
2023-04-09T08:38:35.736Z,-11277.09
2023-04-09T08:41:44.942Z,-11264.28
2023-04-09T08:44:52.828Z,-11262.72
2023-04-09T08:48:00.201Z,-11268.78
2023-04-09T08:51:06.988Z,-11261.75
2023-04-09T08:54:17.254Z,-11263.31
2023-04-09T08:57:23.535Z,-11261.59
2023-04-09T09:00:31.569Z,-11245.00
2023-04-09T09:03:55.599Z,-11277.94
2023-04-09T09:07:08.128Z,-11277.09
2023-04-09T09:10:14.278Z,-11291.03
2023-04-09T09:13:23.745Z,-11263.59
2023-04-09T09:16:31.516Z,-11276.38
2023-04-09T09:19:38.003Z,-11297.50
2023-04-09T09:22:54.936Z,-11303.13
2023-04-09T09:26:01.729Z,-11308.34
2023-04-09T09:29:08.147Z,-11327.78
2023-04-09T09:32:16.214Z,-11292.16
2023-04-09T09:35:23.568Z,-11308.34
2023-04-09T09:38:30.745Z,-11298.91
2023-04-09T09:41:37.626Z,-11309.88
2023-04-09T09:44:44.380Z,-11299.19
2023-04-09T09:47:53.399Z,-11304.81
2023-04-09T09:51:00.694Z,-11294.41
2023-04-09T09:54:09.847Z,-11313.69
2023-04-09T09:57:19.976Z,-11300.31
2023-04-09T10:00:28.519Z,-11306.94
2023-04-09T10:03:38.547Z,-11314.69
2023-04-09T10:06:46.143Z,-11328.47
2023-04-09T10:09:55.910Z,-11332.69
2023-04-09T10:13:02.569Z,-11332.41
2023-04-09T10:16:08.948Z,-11316.38
2023-04-09T10:19:17.220Z,-11328.47
2023-04-09T10:22:28.545Z,-11323.41
2023-04-09T10:25:35.125Z,-11316.50
2023-04-09T10:28:41.801Z,-11298.91
2023-04-09T10:31:50.165Z,-11284.84
2023-04-09T10:35:01.178Z,-11297.78
2023-04-09T10:38:11.430Z,-11283.13
2023-04-09T10:41:23.897Z,-11282.28
2023-04-09T10:44:31.934Z,-11274.69
2023-04-09T10:47:39.763Z,-11298.50
2023-04-09T10:50:47.428Z,-11293.13
2023-04-09T10:53:54.446Z,-11300.47
2023-04-09T10:57:20.888Z,-11290.47
2023-04-09T11:00:27.356Z,-11333.56
2023-04-09T11:03:39.640Z,-11307.34
2023-04-09T11:06:49.475Z,-11291.03
2023-04-09T11:09:56.024Z,-11292.84
2023-04-09T11:13:03.174Z,-11297.22
2023-04-09T11:16:09.370Z,-11293.56
2023-04-09T11:19:16.296Z,-11282.00
2023-04-09T11:22:23.914Z,-11301.16
2023-04-09T11:25:32.525Z,-11290.19
2023-04-09T11:28:42.567Z,-11293.28
2023-04-09T11:31:48.942Z,-11273.72
2023-04-09T11:34:55.185Z,-11276.66
2023-04-09T11:38:02.967Z,-11288.06
2023-04-09T11:41:13.056Z,-11295.09
2023-04-09T11:44:19.403Z,-11289.06
2023-04-09T11:47:26.378Z,-11304.13
2023-04-09T11:50:33.598Z,-11286.50
2023-04-09T11:53:41.278Z,-11295.81
2023-04-09T11:56:55.874Z,-11287.78
2023-04-09T12:00:07.856Z,-11271.59
2023-04-09T12:03:16.761Z,-11284.00
2023-04-09T12:06:24.869Z,-11279.06
2023-04-09T12:09:33.083Z,-11273.72
2023-04-09T12:12:44.362Z,-11294.13
2023-04-09T12:15:51.633Z,-11287.06
2023-04-09T12:18:57.793Z,-11281.59
2023-04-09T12:22:03.878Z,-11279.19
2023-04-09T12:25:12.038Z,-11275.53
2023-04-09T12:28:18.871Z,-11278.91
2023-04-09T12:31:25.764Z,-11267.53
2023-04-09T12:34:32.411Z,-11267.94
2023-04-09T12:37:39.050Z,-11274.28
2023-04-09T12:40:46.893Z,-11278.50
2023-04-09T12:43:53.311Z,-11282.44
2023-04-09T12:46:59.866Z,-11285.25
2023-04-09T12:50:07.358Z,-11290.19
2023-04-09T12:53:13.989Z,-11280.03
2023-04-09T12:56:21.572Z,-11287.78
2023-04-09T12:59:27.778Z,-11290.47
2023-04-09T13:02:34.570Z,-11285.25
2023-04-09T13:05:41.022Z,-11277.78
2023-04-09T13:08:47.436Z,-11273.00
2023-04-09T13:11:55.237Z,-11263.03
2023-04-09T13:15:01.668Z,-11262.31
2023-04-09T13:18:08.312Z,-11258.38
2023-04-09T13:21:18.852Z,-11254.44
2023-04-09T13:24:26.092Z,-11244.59
2023-04-09T13:27:33.740Z,-11249.09
2023-04-09T13:30:40.640Z,-11245.16
2023-04-09T13:33:47.092Z,-11234.75
2023-04-09T13:36:53.380Z,-11243.75
2023-04-09T13:39:59.810Z,-11241.75
2023-04-09T13:43:07.400Z,-11240.63
2023-04-09T13:46:13.552Z,-11239.66
2023-04-09T13:49:32.989Z,-11221.66
2023-04-09T13:52:39.457Z,-11223.34
2023-04-09T13:55:45.892Z,-11218.13
2023-04-09T13:58:53.745Z,-11223.47
2023-04-09T14:02:00.510Z,-11223.91
2023-04-09T14:05:07.574Z,-11220.66
2023-04-09T14:08:13.991Z,-11223.19
2023-04-09T14:11:20.750Z,-11226.00
2023-04-09T14:14:28.412Z,-11205.91
2023-04-09T14:17:35.030Z,-11223.75
2023-04-09T14:20:41.325Z,-11208.00
2023-04-09T14:23:47.526Z,-11210.13
2023-04-09T14:26:54.017Z,-11197.88
2023-04-09T14:30:01.634Z,-11213.34
2023-04-09T14:33:08.000Z,-11201.81
2023-04-09T14:36:14.024Z,-11209.56
2023-04-09T14:39:20.271Z,-11208.56
2023-04-09T14:42:26.493Z,-11198.03
2023-04-09T14:45:34.265Z,-11208.16
2023-04-09T14:48:40.938Z,-11195.78
2023-04-09T14:51:47.554Z,-11211.94
2023-04-09T14:54:54.150Z,-11198.03
2023-04-09T14:58:01.766Z,-11204.78
2023-04-09T15:01:09.525Z,-11226.28
2023-04-09T15:04:15.995Z,-11231.63
2023-04-09T15:07:23.257Z,-11232.34
2023-04-09T15:10:31.541Z,-11232.75
2023-04-09T15:13:37.957Z,-11230.78
2023-04-09T15:16:45.812Z,-11229.66
2023-04-09T15:19:53.669Z,-11237.28
2023-04-09T15:22:59.785Z,-11224.59
2023-04-09T15:26:06.452Z,-11213.78
2023-04-09T15:29:13.212Z,-11212.66
2023-04-09T15:32:20.771Z,-11213.06
2023-04-09T15:35:29.551Z,-11194.09
2023-04-09T15:38:36.227Z,-11195.78
2023-04-09T15:41:43.050Z,-11187.19
2023-04-09T15:44:49.494Z,-11194.50
2023-04-09T15:47:57.088Z,-11182.84
2023-04-09T15:51:04.970Z,-11184.94
2023-04-09T15:54:11.247Z,-11180.72
2023-04-09T15:57:18.521Z,-11166.69
2023-04-09T16:00:25.450Z,-11162.31
2023-04-09T16:03:39.673Z,-11163.03
2023-04-09T16:06:45.938Z,-11166.41
2023-04-09T16:09:52.399Z,-11166.97
2023-04-09T16:12:58.893Z,-11154.88
2023-04-09T16:16:07.035Z,-11156.00
2023-04-09T16:19:14.910Z,-11164.56
2023-04-09T16:22:21.525Z,-11165.00
2023-04-09T16:25:28.180Z,-11159.94
2023-04-09T16:28:34.248Z,-11160.78
2023-04-09T16:31:42.710Z,-11160.50
2023-04-09T16:34:52.026Z,-11155.72
2023-04-09T16:37:58.559Z,-11161.91
2023-04-09T16:41:04.945Z,-11157.97
2023-04-09T16:44:11.315Z,-11165.84
2023-04-09T16:47:17.640Z,-11166.41
2023-04-09T16:50:25.502Z,-11161.75
2023-04-09T16:53:32.062Z,-11154.03
2023-04-09T16:56:38.166Z,-11157.97
2023-04-09T16:59:45.306Z,-11163.88
2023-04-09T17:02:51.678Z,-11165.41
2023-04-09T17:05:59.725Z,-11164.72
2023-04-09T17:09:06.859Z,-11154.31
2023-04-09T17:12:13.290Z,-11152.47
2023-04-09T17:15:19.548Z,-11156.84
2023-04-09T17:18:25.832Z,-11155.44
2023-04-09T17:21:34.624Z,-11162.19
2023-04-09T17:24:40.938Z,-11160.50
2023-04-09T17:27:47.114Z,-11161.47
2023-04-09T17:30:53.494Z,-11167.53
2023-04-09T17:33:59.712Z,-11159.66
2023-04-09T17:37:07.919Z,-11160.78
2023-04-09T17:40:15.336Z,-11149.38
2023-04-09T17:43:22.072Z,-11152.75
2023-04-09T17:46:29.099Z,-11147.28
2023-04-09T17:49:35.692Z,-11145.47
2023-04-09T17:52:43.820Z,-11150.66
2023-04-09T17:55:51.086Z,-11145.88
2023-04-09T17:58:58.240Z,-11146.56
2023-04-09T18:02:05.134Z,-11142.22
2023-04-09T18:05:12.009Z,-11136.59
2023-04-09T18:08:20.482Z,-11147.13
2023-04-09T18:11:27.276Z,-11132.38
2023-04-09T18:14:33.538Z,-11130.41
2023-04-09T18:17:40.067Z,-11125.38
2023-04-09T18:20:55.110Z,-11124.66
2023-04-09T18:24:11.883Z,-11129.44
2023-04-09T18:27:18.887Z,-11123.41
2023-04-09T18:30:26.469Z,-11135.47
2023-04-09T18:33:33.074Z,-11129.59
2023-04-09T18:36:41.892Z,-11121.28
2023-04-09T18:39:50.021Z,-11126.78
2023-04-09T18:42:56.964Z,-11120.03
2023-04-09T18:46:03.835Z,-11116.38
2023-04-09T18:49:11.198Z,-11121.72
2023-04-09T18:52:17.980Z,-11127.34
2023-04-09T18:55:25.914Z,-11139.84
2023-04-09T18:58:33.893Z,-11119.31
2023-04-09T19:01:40.324Z,-11124.38
2023-04-09T19:04:47.436Z,-11134.91
2023-04-09T19:07:59.383Z,-11126.06
2023-04-09T19:11:08.911Z,-11127.34
2023-04-09T19:14:15.648Z,-11131.41
2023-04-09T19:17:22.553Z,-11137.03
2023-04-09T19:20:29.444Z,-11127.75
2023-04-09T19:23:36.236Z,-11136.88
2023-04-09T19:26:44.409Z,-11134.78
2023-04-09T19:29:50.939Z,-11129.16
2023-04-09T19:32:57.681Z,-11129.88
2023-04-09T19:36:04.391Z,-11127.06
2023-04-09T19:39:11.276Z,-11130.41
2023-04-09T19:42:19.162Z,-11124.53
2023-04-09T19:45:25.622Z,-11125.50
2023-04-09T19:48:32.447Z,-11129.59
2023-04-09T19:51:38.920Z,-11123.97
2023-04-09T19:54:44.861Z,-11129.03
2023-04-09T19:57:52.565Z,-11127.06
2023-04-09T20:00:58.763Z,-11127.34
2023-04-09T20:04:05.348Z,-11128.88
2023-04-09T20:07:12.035Z,-11125.94
2023-04-09T20:10:21.434Z,-11119.47
2023-04-09T20:13:30.182Z,-11127.91
2023-04-09T20:16:36.848Z,-11125.78
2023-04-09T20:19:43.385Z,-11125.66
2023-04-09T20:22:56.481Z,-11124.66
2023-04-09T20:26:03.802Z,-11129.03
2023-04-09T20:29:12.623Z,-11129.59
2023-04-09T20:32:18.853Z,-11124.94
2023-04-09T20:35:25.670Z,-11130.41
2023-04-09T20:38:32.289Z,-11129.72
2023-04-09T20:41:38.725Z,-11125.66
2023-04-09T20:44:46.294Z,-11129.59
2023-04-09T20:47:53.535Z,-11132.66
2023-04-09T20:51:00.715Z,-11126.22
2023-04-09T20:54:07.043Z,-11129.88
2023-04-09T20:57:14.085Z,-11130.13
2023-04-09T21:00:21.989Z,-11128.59
2023-04-09T21:03:28.287Z,-11123.41
2023-04-09T21:06:35.939Z,-11125.78
2023-04-09T21:09:42.177Z,-11119.31
2023-04-09T21:12:48.388Z,-11120.31
2023-04-09T21:15:56.278Z,-11122.41
2023-04-09T21:19:07.233Z,-11124.53
2023-04-09T21:22:13.682Z,-11116.09
2023-04-09T21:25:19.973Z,-11122.84
2023-04-09T21:28:26.781Z,-11118.63
2023-04-09T21:31:35.865Z,-11119.59
2023-04-09T21:34:42.349Z,-11120.03
2023-04-09T21:37:48.693Z,-11116.25
2023-04-09T21:40:55.012Z,-11117.22
2023-04-09T21:44:08.091Z,-11123.41
2023-04-09T21:47:15.669Z,-11122.97
2023-04-09T21:50:22.441Z,-11123.97
2023-04-09T21:53:28.616Z,-11114.69
2023-04-09T21:56:35.169Z,-11122.28
2023-04-09T21:59:42.349Z,-11120.16
2023-04-09T22:02:49.782Z,-11119.59
2023-04-09T22:05:55.968Z,-11123.81
2023-04-09T22:09:02.518Z,-11118.91
2023-04-09T22:12:08.934Z,-11115.81
2023-04-09T22:15:15.565Z,-11119.31
2023-04-09T22:18:23.479Z,-11121.72
2023-04-09T22:21:29.776Z,-11119.47
2023-04-09T22:24:36.397Z,-11113.00
2023-04-09T22:27:43.597Z,-11123.13
2023-04-09T22:30:50.108Z,-11114.69
2023-04-09T22:33:58.721Z,-11121.16
2023-04-09T22:37:06.417Z,-11120.59
2023-04-09T22:40:14.905Z,-11117.66
2023-04-09T22:43:21.028Z,-11109.63
2023-04-09T22:46:27.661Z,-11110.19
2023-04-09T22:49:35.343Z,-11108.78
2023-04-09T22:52:41.737Z,-11113.44
2023-04-09T22:55:50.932Z,-11110.91
2023-04-09T22:58:57.680Z,-11112.72
2023-04-09T23:02:04.043Z,-11112.31
2023-04-09T23:05:12.032Z,-11109.78
2023-04-09T23:08:18.704Z,-11106.69
2023-04-09T23:11:25.105Z,-11112.72
2023-04-09T23:14:31.697Z,-11107.69
2023-04-09T23:17:38.275Z,-11108.09
2023-04-09T23:20:46.056Z,-11117.38
2023-04-09T23:23:52.867Z,-11113.84
2023-04-09T23:26:59.928Z,-11108.78
2023-04-09T23:30:07.122Z,-11116.38
2023-04-09T23:33:13.082Z,-11109.22
2023-04-09T23:36:20.605Z,-11113.72
2023-04-09T23:39:27.171Z,-11112.72
2023-04-09T23:42:34.117Z,-11116.09
2023-04-09T23:45:40.083Z,-11117.09
2023-04-09T23:48:46.244Z,-11115.81
2023-04-09T23:51:54.072Z,-11109.50
2023-04-09T23:55:00.921Z,-11111.31
2023-04-09T23:58:07.091Z,-11117.94
